Time;durP1;ratioP1;P1;durP2;ratioP2;P2;SDS_P1;SDS_P2;PMS_P1;PMS_P2;Temp;Humidity;BMP_temperature;BMP_pressure;BME280_temperature;BME280_humidity;BME280_pressure;Samples;Min_cycle;Max_cycle;Signal;HPM_P1;HPM_P2
2024/01/18 00:00:21;;;;;;;25.83;20.15;;;2.40;99.90;;;;;;4248955;27;20410;-57
2024/01/18 00:02:23;;;;;;;18.23;12.83;;;2.40;99.90;;;;;;4249437;27;20043;-57
2024/01/18 00:04:25;;;;;;;25.83;20.08;;;2.40;99.90;;;;;;4249049;27;20074;-57
2024/01/18 00:06:28;;;;;;;25.52;19.55;;;2.40;99.90;;;;;;4248953;27;20043;-57
2024/01/18 00:08:30;;;;;;;23.75;17.90;;;2.40;99.90;;;;;;4249094;27;20051;-58
2024/01/18 00:10:32;;;;;;;19.15;15.77;;;2.40;99.90;;;;;;4248462;27;20043;-57
2024/01/18 00:12:36;;;;;;;27.85;18.50;;;2.50;99.90;;;;;;4248661;27;20075;-57
2024/01/18 00:14:39;;;;;;;21.17;16.27;;;2.60;99.90;;;;;;4231371;27;20040;-58
2024/01/18 00:16:42;;;;;;;29.90;20.38;;;2.60;99.90;;;;;;4230856;28;20050;-57
2024/01/18 00:18:45;;;;;;;20.08;16.30;;;2.50;99.90;;;;;;4249115;27;20149;-58
2024/01/18 00:20:47;;;;;;;24.00;18.25;;;2.50;99.90;;;;;;4249128;27;20735;-57
2024/01/18 00:22:50;;;;;;;22.20;17.63;;;2.60;99.90;;;;;;4248822;27;20386;-57
2024/01/18 00:24:52;;;;;;;19.52;16.10;;;2.60;99.90;;;;;;4231746;28;20084;-61
2024/01/18 00:26:54;;;;;;;24.10;17.50;;;2.50;99.90;;;;;;4251521;27;20047;-58
2024/01/18 00:28:56;;;;;;;16.60;13.38;;;2.50;99.90;;;;;;4252054;27;20045;-59
2024/01/18 00:30:59;;;;;;;23.25;17.83;;;2.60;99.90;;;;;;4251142;27;20043;-59
2024/01/18 00:33:03;;;;;;;19.35;15.73;;;2.60;99.90;;;;;;4249938;27;20490;-62
2024/01/18 00:35:06;;;;;;;20.55;15.73;;;2.50;99.90;;;;;;4250999;27;20110;-58
2024/01/18 00:37:08;;;;;;;19.35;16.02;;;2.60;99.90;;;;;;4251185;27;20129;-59
2024/01/18 00:39:11;;;;;;;21.55;16.83;;;2.70;99.90;;;;;;4251182;27;20047;-58
2024/01/18 00:41:13;;;;;;;18.35;14.32;;;2.60;99.90;;;;;;4249596;27;20043;-57
2024/01/18 00:43:15;;;;;;;18.33;14.93;;;2.60;99.90;;;;;;4249287;27;20054;-58
2024/01/18 00:45:17;;;;;;;23.20;15.05;;;2.50;99.90;;;;;;4248741;27;20129;-57
2024/01/18 00:47:20;;;;;;;20.65;15.70;;;2.40;99.90;;;;;;4248213;27;20443;-56
2024/01/18 00:49:23;;;;;;;19.70;15.77;;;2.30;99.90;;;;;;4248612;27;20043;-57
2024/01/18 00:51:26;;;;;;;22.60;16.88;;;2.20;99.90;;;;;;4248651;27;20108;-57
2024/01/18 00:53:28;;;;;;;18.13;14.88;;;2.10;99.90;;;;;;4248459;27;20039;-58
2024/01/18 00:55:32;;;;;;;22.38;17.60;;;2.10;99.90;;;;;;4247987;27;20122;-57
2024/01/18 00:57:34;;;;;;;17.98;12.05;;;2.20;99.90;;;;;;4248506;27;20151;-57
2024/01/18 00:59:36;;;;;;;20.90;16.33;;;2.20;99.90;;;;;;4248699;27;20051;-58
2024/01/18 01:01:38;;;;;;;19.58;15.07;;;2.20;99.90;;;;;;4250961;27;20071;-58
2024/01/18 01:03:40;;;;;;;20.58;15.85;;;2.20;99.90;;;;;;4248991;27;20047;-57
2024/01/18 01:05:44;;;;;;;19.48;15.55;;;2.10;99.90;;;;;;4248236;27;20042;-60
2024/01/18 01:07:46;;;;;;;19.27;15.50;;;2.10;99.90;;;;;;4248372;27;20100;-57
2024/01/18 01:09:48;;;;;;;18.95;15.38;;;2.00;99.90;;;;;;4247740;27;20043;-57
2024/01/18 01:11:51;;;;;;;21.65;17.60;;;2.10;99.90;;;;;;4248054;27;20047;-57
2024/01/18 01:13:54;;;;;;;19.98;16.63;;;2.00;99.90;;;;;;4230124;28;20047;-58
2024/01/18 01:15:56;;;;;;;17.95;15.23;;;2.00;99.90;;;;;;4248209;27;20051;-57
2024/01/18 01:17:58;;;;;;;19.90;16.20;;;2.00;99.90;;;;;;4247979;27;20470;-57
2024/01/18 01:20:00;;;;;;;21.00;17.05;;;1.90;99.90;;;;;;4247737;27;20067;-57
2024/01/18 01:22:08;;;;;;;21.88;16.67;;;1.90;99.90;;;;;;4247111;27;20054;-58
2024/01/18 01:24:10;;;;;;;19.08;16.50;;;1.90;99.90;;;;;;4247655;27;20047;-57
2024/01/18 01:26:13;;;;;;;16.27;13.95;;;1.90;99.90;;;;;;4247776;27;20125;-57
2024/01/18 01:28:15;;;;;;;19.95;15.80;;;1.80;99.90;;;;;;4247914;27;20166;-57
2024/01/18 01:30:17;;;;;;;21.52;15.55;;;1.80;99.90;;;;;;4247919;27;20058;-57
2024/01/18 01:32:20;;;;;;;22.83;17.52;;;1.80;99.90;;;;;;4247946;27;20467;-57
2024/01/18 01:34:22;;;;;;;20.10;16.85;;;1.80;99.90;;;;;;4247920;28;20047;-57
2024/01/18 01:36:24;;;;;;;18.80;15.48;;;1.80;99.90;;;;;;4248083;28;20092;-57
2024/01/18 01:38:28;;;;;;;22.02;16.92;;;1.80;99.90;;;;;;4247852;28;20126;-57
2024/01/18 01:40:30;;;;;;;18.40;16.08;;;1.80;99.90;;;;;;4247649;28;20043;-57
2024/01/18 01:42:32;;;;;;;20.50;17.23;;;1.80;99.90;;;;;;4247824;28;20048;-57
2024/01/18 01:44:34;;;;;;;20.30;17.02;;;1.90;99.90;;;;;;4247845;28;20047;-57
2024/01/18 01:46:36;;;;;;;18.77;16.60;;;1.90;99.90;;;;;;4248039;28;20409;-57
2024/01/18 01:48:38;;;;;;;22.73;18.92;;;1.80;99.90;;;;;;4247933;28;20055;-57
2024/01/18 01:50:41;;;;;;;20.95;18.48;;;1.80;99.90;;;;;;4247939;28;20437;-57
2024/01/18 01:52:44;;;;;;;24.42;19.85;;;1.80;99.90;;;;;;4248009;28;20412;-58
2024/01/18 01:54:48;;;;;;;21.38;18.65;;;1.80;99.90;;;;;;4247571;28;20047;-58
2024/01/18 01:56:54;;;;;;;25.00;20.47;;;1.80;99.90;;;;;;4247802;28;20047;-57
2024/01/18 01:58:56;;;;;;;25.25;20.13;;;1.70;99.90;;;;;;4247764;28;20047;-56
2024/01/18 02:00:58;;;;;;;23.77;19.60;;;1.70;99.90;;;;;;4247842;28;20043;-57
2024/01/18 02:03:00;;;;;;;20.00;16.52;;;1.70;99.90;;;;;;4247311;28;20050;-57
2024/01/18 02:05:03;;;;;;;24.65;19.88;;;1.70;99.90;;;;;;4247740;28;20055;-57
2024/01/18 02:07:08;;;;;;;23.08;19.48;;;1.80;99.90;;;;;;4247611;28;20054;-58
2024/01/18 02:09:13;;;;;;;25.55;20.30;;;1.90;99.90;;;;;;4247356;28;20072;-57
2024/01/18 02:11:16;;;;;;;23.35;19.08;;;1.80;99.90;;;;;;4247497;28;20122;-56
2024/01/18 02:13:19;;;;;;;25.58;20.73;;;1.70;99.90;;;;;;4247315;28;20050;-57
2024/01/18 02:15:21;;;;;;;26.83;20.95;;;1.70;99.90;;;;;;4247293;28;20071;-57
2024/01/18 02:17:24;;;;;;;23.23;18.55;;;1.70;99.90;;;;;;4247606;28;20134;-57
2024/01/18 02:19:26;;;;;;;27.88;21.80;;;1.60;99.90;;;;;;4247303;28;20048;-57
2024/01/18 02:21:28;;;;;;;23.20;18.75;;;1.80;99.90;;;;;;4247611;28;20062;-58
2024/01/18 02:23:32;;;;;;;20.55;17.08;;;1.80;99.90;;;;;;4246969;28;20039;-58
2024/01/18 02:25:36;;;;;;;23.27;18.08;;;1.80;99.90;;;;;;4247763;28;20058;-57
2024/01/18 02:27:38;;;;;;;17.42;14.35;;;1.80;99.90;;;;;;4247234;28;20051;-57
2024/01/18 02:29:41;;;;;;;23.35;18.33;;;1.70;99.90;;;;;;4247263;28;20047;-58
2024/01/18 02:31:43;;;;;;;24.98;19.65;;;1.70;99.90;;;;;;4247465;28;20039;-57
2024/01/18 02:33:45;;;;;;;19.83;16.15;;;1.70;99.90;;;;;;4248418;27;20414;-58
2024/01/18 02:35:48;;;;;;;23.50;18.83;;;1.70;99.90;;;;;;4232665;28;20119;-57
2024/01/18 02:37:50;;;;;;;22.70;17.75;;;1.70;99.90;;;;;;4250043;27;20043;-57
2024/01/18 02:39:52;;;;;;;18.90;15.13;;;1.70;99.90;;;;;;4250328;27;20039;-57
2024/01/18 02:41:56;;;;;;;20.60;15.98;;;1.70;99.90;;;;;;4250313;27;20365;-58
2024/01/18 02:43:59;;;;;;;22.33;17.23;;;1.70;99.90;;;;;;4250156;27;20039;-58
2024/01/18 02:46:01;;;;;;;23.55;18.42;;;1.60;99.90;;;;;;4250569;27;20538;-58
2024/01/18 02:48:04;;;;;;;21.40;16.98;;;1.60;99.90;;;;;;4250263;27;20043;-57
2024/01/18 02:50:07;;;;;;;20.90;16.92;;;1.50;99.90;;;;;;4250553;27;20059;-57
2024/01/18 02:52:09;;;;;;;21.33;16.67;;;1.40;99.90;;;;;;4250120;27;20051;-57
2024/01/18 02:54:11;;;;;;;22.35;16.85;;;1.40;99.90;;;;;;4250796;27;20543;-58
2024/01/18 02:56:13;;;;;;;23.15;17.25;;;1.40;99.90;;;;;;4251095;27;20043;-58
2024/01/18 02:58:17;;;;;;;18.92;15.23;;;1.40;99.90;;;;;;4250905;27;20043;-59
2024/01/18 03:00:19;;;;;;;20.85;15.82;;;1.40;99.90;;;;;;4250511;27;20043;-61
2024/01/18 03:02:22;;;;;;;18.48;14.60;;;1.40;99.90;;;;;;4250167;27;20043;-57
2024/01/18 03:04:24;;;;;;;21.73;16.55;;;1.40;99.90;;;;;;4250262;27;20130;-57
2024/01/18 03:06:26;;;;;;;19.15;14.85;;;1.40;99.90;;;;;;4249838;27;20046;-58
2024/01/18 03:08:28;;;;;;;19.50;15.07;;;1.40;99.90;;;;;;4249972;27;20047;-57
2024/01/18 03:10:30;;;;;;;18.63;14.13;;;1.40;99.90;;;;;;4250100;27;20541;-57
2024/01/18 03:12:36;;;;;;;17.73;13.93;;;1.40;99.90;;;;;;4249796;27;20047;-57
2024/01/18 03:14:40;;;;;;;19.27;14.35;;;1.40;99.90;;;;;;4249945;27;20043;-57
2024/01/18 03:16:42;;;;;;;20.08;14.45;;;1.30;99.90;;;;;;4250022;27;20047;-57
2024/01/18 03:18:46;;;;;;;21.33;14.40;;;1.40;99.90;;;;;;4249821;27;20059;-58
2024/01/18 03:20:48;;;;;;;18.73;13.38;;;1.50;99.90;;;;;;4249652;27;20126;-58
2024/01/18 03:22:51;;;;;;;16.63;13.43;;;1.40;99.90;;;;;;4249890;27;20049;-57
2024/01/18 03:24:53;;;;;;;17.88;13.73;;;1.40;99.90;;;;;;4249655;27;20039;-57
2024/01/18 03:26:55;;;;;;;13.70;11.63;;;1.40;99.90;;;;;;4249685;27;20100;-57
2024/01/18 03:28:58;;;;;;;18.63;12.77;;;1.40;99.90;;;;;;4249635;27;20077;-58
2024/01/18 03:31:01;;;;;;;14.13;11.43;;;1.40;99.90;;;;;;4249866;27;20117;-58
2024/01/18 03:33:04;;;;;;;14.75;11.40;;;1.40;99.90;;;;;;4249808;27;20500;-57
2024/01/18 03:35:07;;;;;;;17.27;13.50;;;1.40;99.90;;;;;;4249052;27;20043;-58
2024/01/18 03:37:09;;;;;;;13.93;11.68;;;1.40;99.90;;;;;;4249361;27;20478;-58
2024/01/18 03:39:11;;;;;;;11.80;10.13;;;1.40;99.90;;;;;;4249548;27;20045;-58
2024/01/18 03:41:15;;;;;;;14.77;11.63;;;1.50;99.90;;;;;;4249839;27;20092;-58
2024/01/18 03:43:19;;;;;;;13.25;10.32;;;1.60;99.90;;;;;;4249467;27;20435;-57
2024/01/18 03:45:21;;;;;;;13.05;10.38;;;1.50;99.90;;;;;;4248417;27;20043;-57
2024/01/18 03:47:25;;;;;;;11.65;10.00;;;1.50;99.90;;;;;;4249249;27;20047;-57
2024/01/18 03:49:27;;;;;;;13.48;10.27;;;1.60;99.90;;;;;;4249234;27;20133;-57
2024/01/18 03:51:29;;;;;;;12.55;10.48;;;1.60;99.90;;;;;;4249548;27;20047;-58
2024/01/18 03:53:31;;;;;;;11.98;10.00;;;1.60;99.90;;;;;;4250416;27;20051;-59
2024/01/18 03:55:34;;;;;;;15.60;11.30;;;1.60;99.90;;;;;;4253790;27;20070;-58
2024/01/18 03:57:36;;;;;;;12.55;9.57;;;1.60;99.90;;;;;;4253159;27;20062;-68
2024/01/18 03:59:38;;;;;;;15.07;11.73;;;1.70;99.90;;;;;;4251826;27;20545;-56
2024/01/18 04:01:40;;;;;;;12.57;9.95;;;1.80;99.90;;;;;;4249562;27;20081;-58
2024/01/18 04:03:48;;;;;;;10.95;8.80;;;1.80;99.90;;;;;;4231101;28;20043;-57
2024/01/18 04:05:50;;;;;;;11.80;8.43;;;1.80;99.90;;;;;;4249671;27;20070;-57
2024/01/18 04:07:52;;;;;;;10.57;8.60;;;1.70;99.90;;;;;;4249925;27;20138;-58
2024/01/18 04:09:54;;;;;;;11.95;8.20;;;1.80;99.90;;;;;;4251395;27;20428;-61
2024/01/18 04:11:56;;;;;;;10.48;7.50;;;1.70;99.90;;;;;;4251980;27;20131;-59
2024/01/18 04:13:59;;;;;;;11.60;8.57;;;1.70;99.90;;;;;;4251002;27;20383;-58
2024/01/18 04:16:01;;;;;;;10.05;8.23;;;1.70;99.90;;;;;;4250765;27;20067;-58
2024/01/18 04:18:03;;;;;;;8.43;7.05;;;1.70;99.90;;;;;;4249318;27;20122;-57
2024/01/18 04:20:10;;;;;;;10.88;7.93;;;1.70;99.90;;;;;;4248570;27;20049;-57
2024/01/18 04:22:13;;;;;;;11.68;8.27;;;1.70;99.90;;;;;;4248874;27;20043;-57
2024/01/18 04:24:15;;;;;;;11.55;8.88;;;1.70;99.90;;;;;;4248912;27;20044;-57
2024/01/18 04:26:17;;;;;;;11.68;9.70;;;1.80;99.90;;;;;;4248726;27;20486;-57
2024/01/18 04:28:19;;;;;;;15.00;11.02;;;1.80;99.90;;;;;;4248584;27;20047;-57
2024/01/18 04:30:21;;;;;;;14.77;10.35;;;1.70;99.90;;;;;;4249253;27;20055;-58
2024/01/18 04:32:23;;;;;;;14.20;10.65;;;1.70;99.90;;;;;;4248531;27;20040;-57
2024/01/18 04:34:25;;;;;;;15.80;11.75;;;1.60;99.90;;;;;;4248226;27;20051;-57
2024/01/18 04:36:28;;;;;;;16.88;12.57;;;1.50;99.90;;;;;;4248501;27;20046;-57
2024/01/18 04:38:31;;;;;;;13.63;9.82;;;1.50;99.90;;;;;;4248302;27;20054;-58
2024/01/18 04:40:33;;;;;;;14.23;10.50;;;1.50;99.90;;;;;;4248417;27;20130;-57
2024/01/18 04:42:35;;;;;;;14.77;11.27;;;1.60;99.90;;;;;;4248203;27;20072;-57
2024/01/18 04:44:39;;;;;;;15.68;12.02;;;1.60;99.90;;;;;;4248447;27;20042;-57
2024/01/18 04:46:42;;;;;;;18.67;11.77;;;1.60;99.90;;;;;;4248171;27;20039;-57
2024/01/18 04:48:44;;;;;;;16.08;11.07;;;1.50;99.90;;;;;;4247790;27;20071;-57
2024/01/18 04:50:46;;;;;;;17.08;10.82;;;1.60;99.90;;;;;;4248452;27;20440;-58
2024/01/18 04:52:50;;;;;;;13.35;9.57;;;1.60;99.90;;;;;;4248442;27;20051;-57
2024/01/18 04:54:52;;;;;;;13.75;10.15;;;1.60;99.90;;;;;;4248162;27;20043;-57
2024/01/18 04:56:54;;;;;;;14.35;10.93;;;1.50;99.90;;;;;;4248010;27;20043;-57
2024/01/18 04:58:56;;;;;;;12.50;10.30;;;1.50;99.90;;;;;;4248742;27;20061;-58
2024/01/18 05:00:59;;;;;;;12.25;10.13;;;1.50;99.90;;;;;;4248456;27;20387;-57
2024/01/18 05:03:01;;;;;;;17.05;12.48;;;1.50;99.90;;;;;;4247681;27;20078;-57
2024/01/18 05:05:04;;;;;;;15.35;11.25;;;1.40;99.90;;;;;;4248249;27;20118;-57
2024/01/18 05:07:06;;;;;;;18.60;12.38;;;1.30;99.90;;;;;;4248304;27;20043;-57
2024/01/18 05:09:10;;;;;;;22.88;13.55;;;1.30;99.90;;;;;;4248076;27;20134;-57
2024/01/18 05:11:12;;;;;;;18.70;13.43;;;1.20;99.90;;;;;;4247757;27;20059;-57
2024/01/18 05:13:14;;;;;;;22.25;15.15;;;1.30;99.90;;;;;;4247883;27;20494;-57
2024/01/18 05:15:16;;;;;;;20.73;13.90;;;1.30;99.90;;;;;;4248053;27;20077;-57
2024/01/18 05:17:21;;;;;;;24.15;16.48;;;1.30;99.90;;;;;;4229452;28;20142;-57
2024/01/18 05:19:23;;;;;;;21.55;15.75;;;1.30;99.90;;;;;;4247905;27;20053;-57
2024/01/18 05:21:25;;;;;;;25.80;17.08;;;1.30;99.90;;;;;;4247930;27;20096;-57
2024/01/18 05:23:27;;;;;;;25.90;16.25;;;1.30;99.90;;;;;;4247808;27;20073;-57
2024/01/18 05:25:30;;;;;;;28.15;19.20;;;1.20;99.90;;;;;;4248040;27;20395;-57
2024/01/18 05:27:32;;;;;;;25.13;16.13;;;1.30;99.90;;;;;;4247886;27;20043;-57
2024/01/18 05:29:35;;;;;;;26.08;18.13;;;1.30;99.90;;;;;;4248002;27;20047;-57
2024/01/18 05:31:37;;;;;;;29.40;19.30;;;1.40;99.90;;;;;;4229176;28;20044;-57
2024/01/18 05:33:38;;;;;;;30.35;19.05;;;1.40;99.90;;;;;;4247860;27;20047;-58
2024/01/18 05:35:41;;;;;;;30.90;20.23;;;1.40;99.90;;;;;;4247774;28;20121;-58
2024/01/18 05:37:43;;;;;;;29.23;18.98;;;1.30;99.90;;;;;;4247758;28;20059;-57
2024/01/18 05:39:45;;;;;;;35.53;22.73;;;1.30;99.90;;;;;;4247529;28;20507;-57
2024/01/18 05:41:48;;;;;;;29.55;19.92;;;1.40;99.90;;;;;;4247619;28;20223;-61
2024/01/18 05:43:50;;;;;;;35.97;23.73;;;1.40;99.90;;;;;;4247811;28;20043;-57
2024/01/18 05:45:52;;;;;;;31.92;21.73;;;1.40;99.90;;;;;;4247626;28;20039;-58
2024/01/18 05:47:54;;;;;;;29.48;19.73;;;1.40;99.90;;;;;;4247826;28;20096;-57
2024/01/18 05:49:56;;;;;;;34.95;23.92;;;1.40;99.90;;;;;;4247567;28;20044;-57
2024/01/18 05:51:58;;;;;;;29.13;20.15;;;1.40;99.90;;;;;;4247475;28;20047;-57
2024/01/18 05:54:00;;;;;;;34.00;22.55;;;1.40;99.90;;;;;;4247758;28;20051;-57
2024/01/18 05:56:03;;;;;;;30.73;20.08;;;1.40;99.90;;;;;;4247708;28;20119;-57
2024/01/18 05:58:07;;;;;;;32.20;20.70;;;1.50;99.90;;;;;;4247786;28;20453;-57
2024/01/18 06:00:10;;;;;;;33.67;22.40;;;1.60;99.90;;;;;;4247139;28;20051;-57
2024/01/18 06:02:12;;;;;;;31.70;21.73;;;1.50;99.90;;;;;;4247480;28;20542;-57
2024/01/18 06:04:14;;;;;;;29.85;20.17;;;1.60;99.90;;;;;;4247768;28;20051;-57
2024/01/18 06:06:16;;;;;;;30.17;20.88;;;1.60;99.90;;;;;;4249772;28;20478;-58
2024/01/18 06:08:19;;;;;;;26.92;18.33;;;1.50;99.90;;;;;;4249719;27;20051;-58
2024/01/18 06:10:21;;;;;;;30.20;19.48;;;1.60;99.90;;;;;;4251127;27;20462;-58
2024/01/18 06:12:23;;;;;;;26.23;18.85;;;1.70;99.90;;;;;;4250754;27;20047;-58
2024/01/18 06:14:26;;;;;;;32.50;19.98;;;1.70;99.90;;;;;;4250755;27;20447;-58
2024/01/18 06:16:28;;;;;;;24.90;17.38;;;1.80;99.90;;;;;;4251043;27;20126;-57
2024/01/18 06:18:30;;;;;;;30.48;19.60;;;1.90;99.90;;;;;;4251188;27;20047;-57
2024/01/18 06:20:33;;;;;;;27.20;18.70;;;1.90;99.90;;;;;;4250658;27;20062;-61
2024/01/18 06:22:34;;;;;;;27.17;18.63;;;1.90;99.90;;;;;;4250865;27;20046;-57
2024/01/18 06:24:37;;;;;;;27.08;19.10;;;2.00;99.90;;;;;;4250637;27;20047;-57
2024/01/18 06:26:39;;;;;;;25.38;17.85;;;2.00;99.90;;;;;;4250608;27;20043;-58
2024/01/18 06:28:41;;;;;;;26.13;17.92;;;2.00;99.90;;;;;;4250250;27;20078;-58
2024/01/18 06:30:45;;;;;;;27.35;18.70;;;2.00;99.90;;;;;;4250667;27;20530;-58
2024/01/18 06:32:47;;;;;;;29.08;20.13;;;2.00;99.90;;;;;;4250402;27;20478;-57
2024/01/18 06:34:49;;;;;;;29.83;19.38;;;2.00;99.90;;;;;;4250815;27;20051;-58
2024/01/18 06:36:52;;;;;;;29.48;18.45;;;2.10;99.90;;;;;;4250834;27;20077;-57
2024/01/18 06:38:54;;;;;;;29.60;20.08;;;2.10;99.90;;;;;;4250361;27;20071;-57
2024/01/18 06:40:58;;;;;;;26.73;19.25;;;2.00;99.90;;;;;;4250322;27;20043;-58
2024/01/18 06:43:00;;;;;;;18.40;13.10;;;1.90;99.90;;;;;;4250572;27;20044;-58
2024/01/18 06:45:03;;;;;;;31.17;20.00;;;1.80;99.90;;;;;;4250074;27;20046;-57
2024/01/18 06:47:06;;;;;;;26.67;18.77;;;1.70;99.90;;;;;;4250534;27;20162;-58
2024/01/18 06:49:13;;;;;;;28.30;18.73;;;1.70;99.90;;;;;;4232118;28;20058;-58
2024/01/18 06:51:15;;;;;;;28.48;19.77;;;1.70;99.90;;;;;;4251139;27;20049;-58
2024/01/18 06:53:17;;;;;;;26.40;18.92;;;1.70;99.90;;;;;;4252851;27;20072;-66
2024/01/18 06:55:21;;;;;;;25.10;18.10;;;1.70;99.90;;;;;;4253691;27;20055;-61
2024/01/18 06:57:23;;;;;;;24.50;17.65;;;1.70;99.90;;;;;;4254257;27;20046;-57
2024/01/18 06:59:25;;;;;;;24.23;17.20;;;1.80;99.90;;;;;;4252913;27;20451;-59
2024/01/18 07:01:27;;;;;;;26.15;19.38;;;1.90;99.90;;;;;;4253712;27;20047;-57
2024/01/18 07:03:30;;;;;;;25.45;18.30;;;1.90;99.90;;;;;;4253272;27;20066;-57
2024/01/18 07:05:32;;;;;;;23.83;17.67;;;1.90;99.90;;;;;;4253030;27;20091;-58
2024/01/18 07:07:36;;;;;;;21.90;16.08;;;1.90;99.90;;;;;;4253419;27;20076;-61
2024/01/18 07:09:38;;;;;;;23.85;18.80;;;1.90;99.90;;;;;;4252904;27;20046;-58
2024/01/18 07:11:40;;;;;;;26.83;19.90;;;1.90;99.90;;;;;;4253002;27;20078;-58
2024/01/18 07:13:42;;;;;;;27.58;18.67;;;1.90;99.90;;;;;;4250252;27;20096;-57
2024/01/18 07:15:44;;;;;;;27.67;18.70;;;1.90;99.90;;;;;;4250012;27;20070;-57
2024/01/18 07:17:46;;;;;;;30.05;21.00;;;1.80;99.90;;;;;;4249950;27;20040;-56
2024/01/18 07:19:50;;;;;;;25.05;18.00;;;1.80;99.90;;;;;;4250036;27;20050;-57
2024/01/18 07:21:53;;;;;;;27.63;20.42;;;1.80;99.90;;;;;;4249951;27;20048;-57
2024/01/18 07:23:55;;;;;;;27.40;19.55;;;1.80;99.90;;;;;;4249730;27;20127;-58
2024/01/18 07:25:57;;;;;;;27.10;19.40;;;1.70;99.90;;;;;;4249912;27;20047;-57
2024/01/18 07:27:59;;;;;;;27.92;21.20;;;1.80;99.90;;;;;;4249325;27;20089;-57
2024/01/18 07:30:03;;;;;;;33.35;21.50;;;1.70;99.90;;;;;;4249572;27;20047;-57
2024/01/18 07:32:05;;;;;;;31.13;22.05;;;1.70;99.90;;;;;;4249610;27;20440;-57
2024/01/18 07:34:08;;;;;;;31.02;21.70;;;1.80;99.90;;;;;;4249747;27;20049;-57
2024/01/18 07:36:11;;;;;;;34.08;22.08;;;1.80;99.90;;;;;;4249492;27;20047;-57
2024/01/18 07:38:14;;;;;;;32.35;21.25;;;1.70;99.90;;;;;;4249606;27;20050;-57
2024/01/18 07:40:16;;;;;;;32.17;21.20;;;1.70;99.90;;;;;;4249576;27;20513;-57
2024/01/18 07:42:19;;;;;;;32.85;23.25;;;1.70;99.90;;;;;;4249335;27;20047;-57
2024/01/18 07:44:21;;;;;;;33.63;23.55;;;1.70;99.90;;;;;;4249525;27;20114;-57
2024/01/18 07:46:24;;;;;;;33.92;23.27;;;1.70;99.90;;;;;;4249018;27;20525;-57
2024/01/18 07:48:26;;;;;;;36.42;24.48;;;1.70;99.90;;;;;;4249178;27;20050;-57
2024/01/18 07:50:28;;;;;;;33.95;23.15;;;1.70;99.90;;;;;;4249636;27;20446;-57
2024/01/18 07:52:39;;;;;;;30.60;20.65;;;1.70;99.90;;;;;;4249205;27;20043;-57
2024/01/18 07:54:41;;;;;;;31.25;21.95;;;1.70;99.90;;;;;;4230968;28;20051;-57
2024/01/18 07:56:43;;;;;;;37.22;23.50;;;1.60;99.90;;;;;;4249023;27;20043;-57
2024/01/18 07:58:45;;;;;;;25.70;17.52;;;1.60;99.90;;;;;;4231092;27;20048;-56
2024/01/18 08:00:50;;;;;;;35.65;23.45;;;1.80;99.90;;;;;;4249415;27;20043;-57
2024/01/18 08:02:53;;;;;;;34.65;22.90;;;1.80;99.90;;;;;;4249342;27;20051;-57
2024/01/18 08:04:55;;;;;;;31.58;22.45;;;1.80;99.90;;;;;;4249049;27;20043;-57
2024/01/18 08:06:57;;;;;;;37.38;24.17;;;1.80;99.90;;;;;;4248950;27;20050;-57
2024/01/18 08:09:03;;;;;;;31.55;21.05;;;1.70;99.90;;;;;;4249105;27;20401;-57
2024/01/18 08:11:08;;;;;;;34.72;21.42;;;1.70;99.90;;;;;;4248485;27;20051;-58
2024/01/18 08:13:10;;;;;;;32.63;19.15;;;1.70;99.90;;;;;;4248544;27;20138;-57
2024/01/18 08:15:12;;;;;;;34.30;20.63;;;1.80;99.90;;;;;;4249157;27;20043;-57
2024/01/18 08:17:14;;;;;;;28.15;19.23;;;2.00;99.90;;;;;;4249093;27;20043;-57
2024/01/18 08:19:18;;;;;;;36.78;23.27;;;2.00;99.90;;;;;;4249009;27;20047;-57
2024/01/18 08:21:21;;;;;;;34.20;19.63;;;2.00;99.90;;;;;;4249063;27;20501;-57
2024/01/18 08:23:23;;;;;;;34.20;20.48;;;2.10;99.90;;;;;;4248779;27;20043;-57
2024/01/18 08:25:27;;;;;;;33.90;20.90;;;2.00;99.90;;;;;;4248793;27;20477;-57
2024/01/18 08:27:29;;;;;;;34.95;21.85;;;2.00;99.90;;;;;;4248760;27;20043;-57
2024/01/18 08:29:31;;;;;;;30.25;20.67;;;2.00;99.90;;;;;;4250151;27;20051;-58
2024/01/18 08:31:33;;;;;;;36.05;21.15;;;2.10;99.90;;;;;;4250395;27;20103;-57
2024/01/18 08:33:35;;;;;;;33.60;21.10;;;2.10;99.90;;;;;;4250636;27;20043;-57
2024/01/18 08:35:37;;;;;;;31.17;21.33;;;2.10;99.90;;;;;;4250658;27;20039;-64
2024/01/18 08:37:40;;;;;;;27.88;19.33;;;2.20;99.90;;;;;;4250877;27;20047;-57
2024/01/18 08:39:42;;;;;;;38.20;20.80;;;2.30;99.90;;;;;;4250124;27;20496;-62
2024/01/18 08:41:45;;;;;;;30.95;19.92;;;2.30;99.90;;;;;;4250734;27;20043;-58
2024/01/18 08:43:48;;;;;;;35.92;20.83;;;2.40;99.90;;;;;;4232511;28;20039;-58
2024/01/18 08:45:50;;;;;;;30.10;20.38;;;2.40;99.90;;;;;;4250685;27;20043;-61
2024/01/18 08:47:52;;;;;;;32.22;19.00;;;2.50;99.90;;;;;;4250302;27;20039;-58
2024/01/18 08:49:54;;;;;;;35.35;19.17;;;2.60;99.90;;;;;;4248292;27;20414;-58
2024/01/18 08:51:57;;;;;;;28.27;17.98;;;2.60;99.90;;;;;;4249000;27;20047;-58
2024/01/18 08:53:59;;;;;;;32.15;19.15;;;2.60;99.90;;;;;;4250190;27;20482;-58
2024/01/18 08:56:01;;;;;;;29.77;19.05;;;2.50;99.90;;;;;;4248242;27;20077;-58
2024/01/18 08:58:05;;;;;;;31.70;19.52;;;2.60;99.90;;;;;;4248353;27;20043;-58
2024/01/18 09:00:08;;;;;;;32.53;20.20;;;2.60;99.90;;;;;;4248381;27;20047;-58
2024/01/18 09:02:11;;;;;;;28.95;18.15;;;2.60;99.90;;;;;;4248169;27;20057;-58
2024/01/18 09:04:25;;;;;;;31.05;18.88;;;2.70;99.90;;;;;;4248225;27;20178;-58
2024/01/18 09:06:29;;;;;;;32.08;17.90;;;2.70;99.90;;;;;;4247961;27;20088;-57
2024/01/18 09:08:34;;;;;;;27.83;17.55;;;2.80;99.90;;;;;;4247742;27;20061;-58
2024/01/18 09:10:36;;;;;;;30.88;19.77;;;2.90;99.90;;;;;;4248146;27;20337;-58
2024/01/18 09:12:38;;;;;;;30.77;18.58;;;3.00;99.90;;;;;;4247903;27;20079;-57
2024/01/18 09:14:41;;;;;;;32.00;19.98;;;3.00;99.90;;;;;;4247955;27;20071;-57
2024/01/18 09:16:43;;;;;;;30.83;20.23;;;3.00;99.90;;;;;;4247894;27;20408;-57
2024/01/18 09:18:47;;;;;;;30.95;18.05;;;2.90;99.90;;;;;;4247829;27;20414;-58
2024/01/18 09:21:09;;;;;;;30.30;19.08;;;3.00;99.90;;;;;;4247902;27;20043;-57
2024/01/18 09:23:12;;;;;;;30.70;19.95;;;3.00;99.90;;;;;;4247838;27;20047;-57
2024/01/18 09:25:14;;;;;;;24.83;17.98;;;3.10;99.90;;;;;;4229724;28;20048;-58
2024/01/18 09:27:16;;;;;;;28.77;20.20;;;3.10;99.90;;;;;;4248640;27;20109;-57
2024/01/18 09:29:19;;;;;;;30.25;16.17;;;3.20;99.90;;;;;;4248926;27;20400;-58
2024/01/18 09:31:22;;;;;;;30.10;18.67;;;3.30;99.90;;;;;;4250453;27;20122;-63
2024/01/18 09:33:39;;;;;;;31.05;17.02;;;3.30;99.90;;;;;;4248846;27;20118;-57
2024/01/18 09:35:41;;;;;;;28.75;17.63;;;3.50;99.90;;;;;;4248018;27;20051;-57
2024/01/18 09:37:43;;;;;;;27.08;17.63;;;3.60;99.90;;;;;;4247974;28;20107;-59
2024/01/18 09:39:45;;;;;;;28.83;18.90;;;3.70;99.90;;;;;;4247999;28;20500;-58
2024/01/18 09:41:50;;;;;;;24.83;17.20;;;3.60;99.90;;;;;;4248010;28;20039;-58
2024/01/18 09:43:56;;;;;;;29.40;18.08;;;3.70;99.90;;;;;;4249656;27;20047;-58
2024/01/18 09:45:59;;;;;;;27.60;16.75;;;3.60;99.90;;;;;;4233231;28;20446;-57
2024/01/18 09:48:03;;;;;;;30.00;18.55;;;3.50;99.90;;;;;;4251735;27;20065;-57
2024/01/18 09:50:06;;;;;;;;;;;3.60;99.90;;;;;;4252137;27;20482;-58
2024/01/18 09:52:08;;;;;;;28.52;17.73;;;3.40;99.90;;;;;;4254343;27;19920;-64
2024/01/18 09:54:11;;;;;;;29.15;16.08;;;3.40;99.90;;;;;;4255018;27;20469;-57
2024/01/18 09:56:21;;;;;;;26.92;16.48;;;3.40;99.90;;;;;;4254737;27;20065;-57
2024/01/18 09:58:23;;;;;;;25.98;16.75;;;3.40;99.90;;;;;;4252549;27;20043;-57
2024/01/18 10:00:30;;;;;;;27.20;17.15;;;3.50;99.90;;;;;;4251361;27;20096;-63
2024/01/18 10:02:32;;;;;;;27.23;17.48;;;3.60;99.90;;;;;;4251748;27;20528;-64
2024/01/18 10:04:38;;;;;;;28.15;16.90;;;3.40;99.90;;;;;;4252398;27;20391;-56
2024/01/18 10:06:40;;;;;;;;;;;3.60;99.90;;;;;;4252219;27;20047;-58
2024/01/18 10:08:44;;;;;;;25.33;16.17;;;3.70;99.90;;;;;;4251142;27;19985;-57
2024/01/18 10:10:46;;;;;;;31.90;16.50;;;3.80;99.90;;;;;;4251249;27;20458;-57
2024/01/18 10:12:48;;;;;;;29.95;17.25;;;3.90;99.90;;;;;;4250508;27;20506;-58
2024/01/18 10:14:50;;;;;;;25.80;16.23;;;3.80;99.90;;;;;;4251016;27;20453;-57
2024/01/18 10:16:52;;;;;;;24.58;13.65;;;3.90;99.90;;;;;;4249435;27;20480;-57
2024/01/18 10:18:55;;;;;;;25.23;13.82;;;4.20;99.90;;;;;;4250663;27;20050;-58
2024/01/18 10:20:59;;;;;;;21.17;14.00;;;4.50;99.90;;;;;;4246999;27;20047;-57
2024/01/18 10:23:01;;;;;;;27.02;14.23;;;4.80;99.90;;;;;;4248221;27;20039;-58
2024/01/18 10:25:10;;;;;;;20.42;12.10;;;4.80;99.90;;;;;;4248299;27;20050;-57
2024/01/18 10:27:12;;;;;;;21.75;13.80;;;4.80;98.20;;;;;;4232297;28;20040;-57
2024/01/18 10:29:14;;;;;;;26.08;15.40;;;4.50;99.40;;;;;;4250668;27;20043;-58
2024/01/18 10:31:16;;;;;;;28.10;15.65;;;4.80;99.90;;;;;;4250521;27;20130;-57